createdAt,value
2019-05-13T00:00:34.073Z,40.47
2019-05-13T00:03:03.633Z,44.60
2019-05-13T00:05:33.844Z,47.00
2019-05-13T00:08:03.438Z,44.47
2019-05-13T00:10:34.786Z,50.13
2019-05-13T00:13:04.364Z,43.73
2019-05-13T00:15:34.241Z,52.93
2019-05-13T00:18:03.926Z,49.90
2019-05-13T00:20:33.921Z,51.13
2019-05-13T00:23:04.031Z,53.73
2019-05-13T00:25:33.888Z,54.13
2019-05-13T00:28:03.995Z,52.90
2019-05-13T00:30:34.322Z,54.70
2019-05-13T00:33:03.870Z,59.13
2019-05-13T00:35:33.986Z,58.00
2019-05-13T00:38:03.845Z,54.70
2019-05-13T00:40:33.738Z,54.33
2019-05-13T00:43:03.903Z,61.23
2019-05-13T00:45:33.998Z,59.87
2019-05-13T00:48:04.516Z,59.43
2019-05-13T00:50:33.886Z,58.40
2019-05-13T00:53:04.353Z,57.03
2019-05-13T00:55:34.336Z,57.30
2019-05-13T00:58:04.701Z,62.13
2019-05-13T01:00:34.098Z,63.97
2019-05-13T01:03:04.050Z,58.03
2019-05-13T01:05:34.037Z,61.07
2019-05-13T01:08:04.330Z,58.07
2019-05-13T01:10:34.459Z,64.83
2019-05-13T01:13:04.784Z,63.57
2019-05-13T01:15:34.488Z,70.27
2019-05-13T01:18:04.016Z,70.40
2019-05-13T01:20:34.556Z,64.90
2019-05-13T01:23:03.873Z,66.17
2019-05-13T01:25:33.969Z,74.60
2019-05-13T01:28:04.619Z,72.70
2019-05-13T01:30:34.537Z,75.13
2019-05-13T01:33:04.449Z,79.33
2019-05-13T01:35:34.238Z,78.73
2019-05-13T01:38:04.615Z,75.70
2019-05-13T01:40:34.749Z,78.43
2019-05-13T01:43:04.136Z,78.53
2019-05-13T01:45:33.698Z,75.50
2019-05-13T01:48:07.076Z,72.03
2019-05-13T01:50:34.079Z,75.90
2019-05-13T01:53:04.376Z,79.93
2019-05-13T01:55:33.983Z,81.90
2019-05-13T01:58:04.290Z,96.20
2019-05-13T02:00:35.227Z,87.30
2019-05-13T02:03:04.353Z,105.63
2019-05-13T02:05:33.894Z,106.17
2019-05-13T02:08:04.409Z,110.60
2019-05-13T02:10:53.838Z,99.47
2019-05-13T02:13:24.468Z,104.73
2019-05-13T02:15:54.823Z,114.17
2019-05-13T02:18:25.720Z,112.70
2019-05-13T02:20:56.098Z,111.47
2019-05-13T02:23:24.867Z,115.87
2019-05-13T02:25:54.461Z,109.57
2019-05-13T02:28:24.871Z,118.37
2019-05-13T02:30:55.986Z,98.67
2019-05-13T02:33:24.300Z,114.83
2019-05-13T02:35:53.695Z,97.60
2019-05-13T02:38:28.916Z,98.60
2019-05-13T02:40:53.367Z,87.90
2019-05-13T02:43:23.954Z,79.13
2019-05-13T02:45:54.053Z,72.73
2019-05-13T02:48:23.825Z,75.87
2019-05-13T02:50:53.911Z,82.93
2019-05-13T02:53:24.016Z,81.23
2019-05-13T02:55:53.408Z,82.83
2019-05-13T02:58:24.253Z,79.13
2019-05-13T03:00:53.787Z,81.50
2019-05-13T03:03:23.651Z,93.17
2019-05-13T03:05:53.508Z,87.80
2019-05-13T03:08:38.595Z,78.53
2019-05-13T03:10:53.759Z,71.53
2019-05-13T03:13:23.687Z,65.97
2019-05-13T03:16:02.805Z,53.83
2019-05-13T03:18:33.411Z,49.40
2019-05-13T03:21:03.324Z,28.60
2019-05-13T03:23:32.829Z,31.83
2019-05-13T03:26:02.868Z,40.07
2019-05-13T03:28:33.509Z,50.90
2019-05-13T03:31:06.444Z,47.47
2019-05-13T03:33:36.922Z,45.23
2019-05-13T03:36:06.237Z,39.40
2019-05-13T03:38:53.800Z,47.97
2019-05-13T03:41:07.355Z,40.67
2019-05-13T03:43:38.929Z,40.93
2019-05-13T03:46:08.544Z,40.47
2019-05-13T03:48:42.894Z,41.23
2019-05-13T03:51:13.262Z,39.40
2019-05-13T03:53:43.196Z,45.93
2019-05-13T03:56:12.820Z,34.93
2019-05-13T03:58:43.373Z,33.83
2019-05-13T04:01:13.289Z,35.63
2019-05-13T04:03:44.055Z,35.00
2019-05-13T04:06:13.744Z,41.23
2019-05-13T04:08:43.886Z,36.03
2019-05-13T04:11:12.837Z,40.37
2019-05-13T04:13:42.903Z,33.97
2019-05-13T04:16:12.739Z,52.20
2019-05-13T04:18:42.966Z,46.27
2019-05-13T04:21:13.036Z,46.57
2019-05-13T04:23:42.961Z,48.40
2019-05-13T04:26:14.875Z,50.77
2019-05-13T04:28:43.596Z,53.57
2019-05-13T04:31:14.210Z,54.97
2019-05-13T04:33:43.123Z,43.97
2019-05-13T04:36:13.375Z,54.03
2019-05-13T04:38:44.308Z,54.03
2019-05-13T04:41:12.957Z,53.33
2019-05-13T04:43:43.457Z,51.73
2019-05-13T04:46:13.967Z,48.13
2019-05-13T04:48:44.535Z,43.93
2019-05-13T04:51:14.267Z,48.47
2019-05-13T04:53:43.512Z,49.37
2019-05-13T04:56:13.593Z,58.27
2019-05-13T04:58:43.159Z,48.57
2019-05-13T05:01:24.129Z,56.83
2019-05-13T05:04:24.353Z,60.70
2019-05-13T05:07:07.995Z,63.33
2019-05-13T05:12:53.521Z,77.77
2019-05-13T05:15:27.811Z,71.63
2019-05-13T05:18:21.975Z,69.87
2019-05-13T05:20:54.970Z,74.30
2019-05-13T05:23:32.174Z,66.00
2019-05-13T05:26:06.457Z,60.80
2019-05-13T05:28:46.925Z,63.67
2019-05-13T05:31:36.136Z,65.90
2019-05-13T05:34:38.748Z,48.43
2019-05-13T05:37:25.029Z,67.00
2019-05-13T05:39:55.734Z,50.47
2019-05-13T05:42:27.149Z,47.13
2019-05-13T05:44:56.117Z,42.27
2019-05-13T05:47:27.677Z,64.43
2019-05-13T05:49:56.734Z,42.47
2019-05-13T05:52:28.299Z,43.17
2019-05-13T05:55:02.295Z,36.93
2019-05-13T05:57:31.676Z,46.67
2019-05-13T06:00:03.271Z,40.13
2019-05-13T06:02:33.304Z,43.37
2019-05-13T06:05:03.715Z,47.00
2019-05-13T06:07:34.367Z,63.60
2019-05-13T06:10:03.078Z,37.97
2019-05-13T06:12:32.633Z,42.13
2019-05-13T06:15:02.623Z,32.37
2019-05-13T06:17:32.013Z,39.20
2019-05-13T06:20:03.070Z,40.03
2019-05-13T06:22:32.108Z,29.57
2019-05-13T06:25:01.482Z,42.10
2019-05-13T06:27:31.768Z,33.33
2019-05-13T06:30:02.366Z,31.53
2019-05-13T06:32:31.557Z,34.00
2019-05-13T06:35:01.938Z,28.20
2019-05-13T06:37:32.197Z,24.37
2019-05-13T06:40:01.991Z,23.33
2019-05-13T06:42:32.465Z,22.23
2019-05-13T06:45:01.934Z,24.83
2019-05-13T06:47:32.544Z,32.60
2019-05-13T06:50:03.073Z,31.80
2019-05-13T06:52:32.068Z,30.93
2019-05-13T06:55:02.740Z,28.73
2019-05-13T06:57:32.274Z,29.23
2019-05-13T07:00:01.716Z,30.83
2019-05-13T07:02:32.084Z,33.57
2019-05-13T07:05:02.337Z,28.50
2019-05-13T07:07:31.867Z,23.43
2019-05-13T07:10:02.472Z,25.07
2019-05-13T07:12:31.295Z,26.57
2019-05-13T07:15:02.468Z,26.23
2019-05-13T07:17:32.324Z,32.73
2019-05-13T07:20:02.365Z,29.80
2019-05-13T07:22:32.197Z,29.03
2019-05-13T07:25:02.632Z,31.63
2019-05-13T07:27:31.894Z,51.53
2019-05-13T07:30:02.195Z,27.70
2019-05-13T07:32:31.602Z,23.50
2019-05-13T07:35:03.799Z,20.27
2019-05-13T07:37:31.953Z,18.67
2019-05-13T07:40:02.646Z,19.60
2019-05-13T07:42:31.335Z,20.40
2019-05-13T07:45:01.501Z,19.43
2019-05-13T07:47:31.434Z,18.87
2019-05-13T07:50:02.564Z,16.93
2019-05-13T07:52:31.917Z,18.53
2019-05-13T07:55:03.995Z,21.77
2019-05-13T07:57:32.619Z,16.83
2019-05-13T08:00:02.034Z,19.25
2019-05-13T08:02:31.992Z,21.67
2019-05-13T08:05:02.373Z,23.87
2019-05-13T08:07:31.642Z,19.80
2019-05-13T08:10:03.370Z,23.40
2019-05-13T08:12:31.919Z,22.73
2019-05-13T08:15:03.141Z,22.30
2019-05-13T08:17:32.693Z,26.83
2019-05-13T08:20:02.914Z,24.83
2019-05-13T08:22:32.185Z,21.80
2019-05-13T08:25:02.976Z,26.50
2019-05-13T08:27:35.013Z,25.73
2019-05-13T08:32:41.760Z,22.10
2019-05-13T08:35:12.303Z,22.13
2019-05-13T08:37:41.352Z,21.93
2019-05-13T08:40:12.175Z,23.83
2019-05-13T08:42:41.545Z,22.53
2019-05-13T08:45:12.089Z,20.17
2019-05-13T08:47:41.982Z,16.37
2019-05-13T08:50:12.167Z,15.87
2019-05-13T08:52:42.225Z,19.47
2019-05-13T08:55:16.186Z,20.83
2019-05-13T08:57:45.159Z,21.30
2019-05-13T09:00:21.454Z,18.98
2019-05-13T09:02:49.506Z,18.20
2019-05-13T09:05:18.167Z,16.25
2019-05-13T09:07:46.820Z,19.13
2019-05-13T09:10:16.777Z,18.73
2019-05-13T09:12:45.370Z,19.35
2019-05-13T09:15:14.073Z,17.37
2019-05-13T09:17:42.781Z,17.83
2019-05-13T09:20:11.655Z,20.93
2019-05-13T09:22:41.264Z,18.33
2019-05-13T09:25:12.503Z,20.70
2019-05-13T09:27:42.453Z,15.10
2019-05-13T09:30:12.092Z,17.50
2019-05-13T09:32:42.539Z,15.93
2019-05-13T09:35:11.963Z,17.97
2019-05-13T09:37:42.322Z,17.83
2019-05-13T09:40:11.513Z,13.93
2019-05-13T09:42:50.901Z,15.70
2019-05-13T09:45:12.287Z,16.63
2019-05-13T09:47:41.759Z,38.10
2019-05-13T09:50:27.631Z,12.70
2019-05-13T09:52:42.878Z,21.17
2019-05-13T09:55:25.580Z,8.87
2019-05-13T09:57:42.239Z,8.17
2019-05-13T10:00:12.326Z,17.17
2019-05-13T10:02:42.641Z,8.77
2019-05-13T10:05:11.852Z,7.57
2019-05-13T10:07:42.428Z,10.87
2019-05-13T10:10:11.976Z,7.13
2019-05-13T10:12:42.540Z,7.87
2019-05-13T10:15:12.661Z,5.93
2019-05-13T10:17:42.695Z,11.30
2019-05-13T10:20:12.543Z,9.93
2019-05-13T10:22:41.982Z,8.77
2019-05-13T10:25:13.734Z,10.03
2019-05-13T10:27:42.559Z,5.07
2019-05-13T10:30:14.020Z,7.07
2019-05-13T10:32:42.892Z,6.33
2019-05-13T10:35:11.894Z,14.60
2019-05-13T10:37:41.748Z,7.97
2019-05-13T10:40:11.587Z,6.70
2019-05-13T10:42:43.161Z,10.20
2019-05-13T10:45:12.875Z,6.63
2019-05-13T10:47:42.300Z,6.80
2019-05-13T10:50:11.133Z,7.83
2019-05-13T10:52:42.549Z,8.90
2019-05-13T10:55:12.889Z,11.35
2019-05-13T10:57:42.376Z,9.25
2019-05-13T11:00:12.382Z,4.83
2019-05-13T11:02:42.320Z,4.20
2019-05-13T11:05:12.528Z,5.73
2019-05-13T11:07:42.125Z,8.00
2019-05-13T11:10:13.275Z,12.07
2019-05-13T11:12:42.289Z,8.80
2019-05-13T11:15:11.145Z,6.37
2019-05-13T11:17:42.457Z,8.23
2019-05-13T11:20:12.500Z,9.97
2019-05-13T11:22:40.584Z,7.80
2019-05-13T11:25:11.817Z,6.93
2019-05-13T11:27:42.045Z,6.43
2019-05-13T11:30:13.027Z,4.57
2019-05-13T11:32:42.698Z,4.73
2019-05-13T11:35:12.958Z,6.73
2019-05-13T11:37:43.537Z,6.00
2019-05-13T11:40:12.520Z,7.73
2019-05-13T11:42:42.189Z,9.00
2019-05-13T11:45:11.866Z,4.73
2019-05-13T11:47:41.520Z,4.93
2019-05-13T11:50:11.716Z,7.03
2019-05-13T11:52:42.516Z,11.83
2019-05-13T11:55:13.157Z,5.67
2019-05-13T11:57:44.435Z,9.93
2019-05-13T12:00:13.687Z,10.47
2019-05-13T12:02:44.684Z,9.43
2019-05-13T12:05:12.966Z,12.67
2019-05-13T12:07:42.057Z,10.27
2019-05-13T12:10:12.403Z,8.47
2019-05-13T12:12:44.001Z,12.43
2019-05-13T12:17:42.776Z,9.90
2019-05-13T12:20:12.260Z,9.10
2019-05-13T12:22:42.626Z,7.13
2019-05-13T12:27:41.962Z,7.30
2019-05-13T12:30:12.541Z,9.07
2019-05-13T12:32:43.685Z,7.10
2019-05-13T12:35:13.355Z,6.27
2019-05-13T12:37:42.308Z,12.07
2019-05-13T12:40:10.901Z,8.70
2019-05-13T12:42:44.337Z,5.33
2019-05-13T12:45:14.073Z,5.00
2019-05-13T12:47:43.231Z,7.80
2019-05-13T12:50:13.687Z,12.83
2019-05-13T12:52:43.706Z,10.10
2019-05-13T12:55:14.041Z,8.77
2019-05-13T12:57:42.950Z,7.33
2019-05-13T13:00:13.214Z,9.90
2019-05-13T13:02:50.029Z,10.40
2019-05-13T13:05:19.708Z,18.37
2019-05-13T13:07:43.318Z,8.67
2019-05-13T13:10:14.584Z,7.77
2019-05-13T13:12:42.306Z,20.70
2019-05-13T13:15:32.927Z,11.10
2019-05-13T13:17:41.533Z,9.60
2019-05-13T13:20:14.728Z,7.77
2019-05-13T13:22:40.897Z,7.53
2019-05-13T13:25:13.013Z,8.90
2019-05-13T13:28:03.199Z,8.83
2019-05-13T13:30:12.352Z,8.27
2019-05-13T13:32:45.341Z,10.37
2019-05-13T13:35:16.244Z,11.90
2019-05-13T13:37:46.309Z,15.47
2019-05-13T13:40:24.524Z,9.93
2019-05-13T13:42:45.624Z,7.53
2019-05-13T13:45:14.722Z,11.03
2019-05-13T13:47:45.376Z,9.27
2019-05-13T13:50:14.030Z,10.27
2019-05-13T13:52:45.633Z,11.37
2019-05-13T13:55:16.077Z,4.93
2019-05-13T13:57:45.036Z,7.00
2019-05-13T14:00:29.575Z,8.37
2019-05-13T14:02:44.497Z,7.80
2019-05-13T14:05:13.344Z,10.50
2019-05-13T14:06:32.043Z,7.73
2019-05-13T14:06:32.947Z,10.57
2019-05-13T14:07:42.543Z,16.30
2019-05-13T14:10:11.791Z,8.38
2019-05-13T14:12:41.676Z,9.80
2019-05-13T14:15:10.716Z,8.17
2019-05-13T14:17:41.320Z,5.43
2019-05-13T14:20:10.828Z,17.23
2019-05-13T14:22:41.917Z,7.07
2019-05-13T14:25:11.471Z,13.40
2019-05-13T14:27:42.001Z,8.90
2019-05-13T14:30:11.765Z,9.70
2019-05-13T14:32:42.466Z,12.30
2019-05-13T14:35:12.273Z,13.40
2019-05-13T14:37:43.596Z,5.93
2019-05-13T14:40:12.838Z,7.27
2019-05-13T14:42:42.702Z,8.57
2019-05-13T14:45:12.324Z,9.57
2019-05-13T14:47:41.050Z,9.10
2019-05-13T14:50:12.008Z,10.40
2019-05-13T14:52:41.616Z,7.27
2019-05-13T14:55:10.808Z,4.00
2019-05-13T14:57:41.321Z,5.13
2019-05-13T15:00:10.827Z,6.47
2019-05-13T15:02:41.943Z,4.60
2019-05-13T15:05:11.979Z,5.23
2019-05-13T15:07:42.108Z,3.47
2019-05-13T15:10:11.120Z,6.33
2019-05-13T15:12:41.518Z,3.50
2019-05-13T15:15:12.527Z,5.90
2019-05-13T15:17:42.620Z,4.60
2019-05-13T15:20:12.706Z,7.20
2019-05-13T15:22:42.408Z,8.30
2019-05-13T15:25:11.488Z,5.70
2019-05-13T15:27:41.988Z,6.03
2019-05-13T15:30:17.330Z,4.73
2019-05-13T15:32:42.003Z,7.33
2019-05-13T15:35:13.239Z,9.30
2019-05-13T15:37:41.775Z,9.93
2019-05-13T15:40:11.738Z,6.17
2019-05-13T15:42:40.413Z,9.83
2019-05-13T15:45:09.160Z,5.80
2019-05-13T15:47:37.747Z,8.07
2019-05-13T15:50:06.990Z,8.43
2019-05-13T15:52:35.641Z,8.30
2019-05-13T15:55:05.395Z,16.83
2019-05-13T15:57:33.967Z,6.97
2019-05-13T16:00:02.674Z,6.70
2019-05-13T16:02:31.468Z,5.97
2019-05-13T16:05:02.276Z,11.70
2019-05-13T16:07:30.259Z,10.20
2019-05-13T16:09:58.901Z,12.03
2019-05-13T16:12:27.558Z,7.20
2019-05-13T16:14:56.182Z,9.37
2019-05-13T16:17:37.947Z,13.03
2019-05-13T16:19:58.170Z,7.67
2019-05-13T16:22:26.807Z,7.43
2019-05-13T16:24:55.495Z,9.97
2019-05-13T16:27:24.183Z,7.53
2019-05-13T16:29:55.529Z,5.33
2019-05-13T16:32:24.144Z,6.20
2019-05-13T16:34:52.710Z,6.63
2019-05-13T16:37:22.048Z,8.87
2019-05-13T16:39:52.070Z,4.37
2019-05-13T16:42:22.556Z,5.37
2019-05-13T16:44:51.702Z,4.33
2019-05-13T16:47:21.247Z,6.90
2019-05-13T16:49:50.002Z,9.10
2019-05-13T16:52:18.677Z,8.07
2019-05-13T16:54:47.245Z,16.73
2019-05-13T16:57:15.902Z,6.67
2019-05-13T16:59:44.535Z,7.23
2019-05-13T17:02:13.216Z,6.53
2019-05-13T17:04:41.861Z,6.80
2019-05-13T17:07:10.513Z,9.30
2019-05-13T17:09:41.413Z,8.23
2019-05-13T17:12:12.140Z,9.20
2019-05-13T17:14:41.610Z,8.87
2019-05-13T17:17:11.970Z,7.93
2019-05-13T17:19:43.342Z,5.90
2019-05-13T17:22:12.033Z,6.73
2019-05-13T17:24:42.700Z,5.40
2019-05-13T17:27:12.139Z,5.90
2019-05-13T17:29:40.842Z,7.53
2019-05-13T17:32:11.430Z,5.00
2019-05-13T17:34:43.494Z,4.57
2019-05-13T17:37:11.750Z,7.00
2019-05-13T17:39:41.483Z,6.30
2019-05-13T17:42:12.193Z,6.37
2019-05-13T17:44:45.910Z,5.17
2019-05-13T17:47:11.686Z,11.57
2019-05-13T17:49:41.892Z,5.37
2019-05-13T17:52:11.506Z,6.10
2019-05-13T17:54:42.618Z,18.80
2019-05-13T17:57:12.390Z,8.13
2019-05-13T17:59:41.839Z,7.83
2019-05-13T18:02:16.420Z,9.83
2019-05-13T18:04:44.974Z,11.17
2019-05-13T18:07:13.608Z,6.30
2019-05-13T18:09:42.490Z,9.47
2019-05-13T18:12:11.533Z,11.30
2019-05-13T18:14:41.177Z,8.90
2019-05-13T18:17:12.370Z,9.47
2019-05-13T18:19:42.106Z,8.03
2019-05-13T18:22:13.768Z,11.17
2019-05-13T18:24:45.109Z,9.23
2019-05-13T18:27:13.750Z,6.83
2019-05-13T18:29:42.461Z,10.87
2019-05-13T18:32:12.338Z,9.50
2019-05-13T18:34:41.090Z,10.20
2019-05-13T18:37:11.858Z,11.53
2019-05-13T18:39:41.617Z,13.47
2019-05-13T18:42:11.432Z,14.47
2019-05-13T18:44:42.121Z,13.40
2019-05-13T18:47:12.061Z,10.87
2019-05-13T18:49:42.390Z,12.43
2019-05-13T18:52:11.749Z,13.50
2019-05-13T18:54:42.130Z,14.50
2019-05-13T18:57:12.245Z,14.40
2019-05-13T18:59:44.035Z,18.47
2019-05-13T19:02:12.768Z,17.03
2019-05-13T19:04:41.866Z,18.87
2019-05-13T19:07:10.612Z,18.17
2019-05-13T19:09:42.293Z,14.50
2019-05-13T19:12:11.617Z,19.17
2019-05-13T19:14:41.201Z,19.07
2019-05-13T19:17:12.164Z,22.30
2019-05-13T19:19:42.222Z,20.27
2019-05-13T19:22:12.284Z,20.77
2019-05-13T19:24:41.661Z,24.20
2019-05-13T19:27:12.006Z,23.10
2019-05-13T19:29:42.477Z,20.70
2019-05-13T19:32:12.405Z,27.70
2019-05-13T19:34:42.370Z,25.27
2019-05-13T19:37:14.483Z,35.20
2019-05-13T19:39:43.262Z,26.30
2019-05-13T19:42:11.927Z,26.10
2019-05-13T19:44:42.022Z,24.00
2019-05-13T19:47:12.435Z,25.83
2019-05-13T19:49:44.204Z,22.60
2019-05-13T19:52:12.039Z,20.60
2019-05-13T19:54:41.986Z,21.80
2019-05-13T19:57:11.965Z,24.90
2019-05-13T19:59:42.684Z,23.97
2019-05-13T20:02:12.254Z,25.37
2019-05-13T20:04:41.453Z,25.43
2019-05-13T20:07:11.824Z,23.73
2019-05-13T20:09:42.607Z,26.17
2019-05-13T20:12:11.337Z,20.77
2019-05-13T20:14:39.999Z,22.13
2019-05-13T20:17:08.622Z,20.23
2019-05-13T20:19:49.788Z,19.73
2019-05-13T20:22:07.577Z,22.93
2019-05-13T20:24:36.156Z,19.20
2019-05-13T20:27:04.906Z,18.33
2019-05-13T20:29:33.602Z,21.50
2019-05-13T20:32:02.267Z,17.93
2019-05-13T20:34:31.690Z,18.53
2019-05-13T20:37:02.175Z,21.73
2019-05-13T20:39:31.962Z,19.83
2019-05-13T20:42:01.630Z,16.23
2019-05-13T20:44:31.353Z,19.60
2019-05-13T20:47:01.642Z,18.83
2019-05-13T20:49:31.175Z,21.80
2019-05-13T20:52:00.092Z,18.50
2019-05-13T20:54:31.191Z,21.93
2019-05-13T20:56:59.117Z,19.23
2019-05-13T20:59:27.815Z,17.47
2019-05-13T21:02:02.120Z,18.77
2019-05-13T21:04:32.017Z,17.90
2019-05-13T21:07:02.087Z,19.47
2019-05-13T21:09:31.655Z,18.40
2019-05-13T21:12:01.827Z,18.57
2019-05-13T21:14:32.055Z,17.93
2019-05-13T21:17:01.408Z,19.10
2019-05-13T21:19:39.312Z,17.80
2019-05-13T21:22:00.507Z,20.77
2019-05-13T21:24:29.128Z,19.13
2019-05-13T21:26:57.707Z,18.27
2019-05-13T21:29:26.340Z,19.60
2019-05-13T21:31:54.855Z,19.20
2019-05-13T21:34:23.419Z,23.60
2019-05-13T21:36:52.069Z,19.70
2019-05-13T21:39:21.380Z,23.30
2019-05-13T21:41:51.960Z,21.03
2019-05-13T21:44:20.600Z,25.00
2019-05-13T21:46:51.431Z,23.43
2019-05-13T21:49:21.303Z,25.40
2019-05-13T21:51:52.019Z,23.37
2019-05-13T21:54:20.386Z,24.80
2019-05-13T21:56:48.910Z,23.80
2019-05-13T21:59:17.483Z,24.43
2019-05-13T22:01:46.171Z,24.40
2019-05-13T22:04:14.843Z,27.20
2019-05-13T22:06:43.480Z,25.07
2019-05-13T22:09:12.504Z,26.57
2019-05-13T22:11:42.036Z,28.10
2019-05-13T22:14:11.408Z,25.57
2019-05-13T22:16:41.275Z,29.33
2019-05-13T22:19:12.194Z,26.97
2019-05-13T22:21:42.304Z,27.50
2019-05-13T22:24:11.613Z,29.03
2019-05-13T22:26:41.994Z,25.97
2019-05-13T22:29:10.853Z,32.93
2019-05-13T22:31:41.801Z,31.73
2019-05-13T22:34:11.899Z,28.33
2019-05-13T22:36:40.154Z,33.30
2019-05-13T22:39:08.810Z,31.53
2019-05-13T22:41:37.449Z,34.93
2019-05-13T22:44:06.040Z,33.33
2019-05-13T22:46:34.686Z,34.70
2019-05-13T22:49:03.307Z,35.10
2019-05-13T22:51:32.138Z,34.70
2019-05-13T22:54:00.806Z,37.77
2019-05-13T22:56:31.793Z,36.40
2019-05-13T22:59:01.946Z,36.90
2019-05-13T23:01:32.241Z,39.30
2019-05-13T23:04:02.160Z,36.83
2019-05-13T23:06:32.128Z,37.80
2019-05-13T23:09:01.734Z,38.53
2019-05-13T23:11:31.101Z,37.73
2019-05-13T23:14:09.799Z,38.77
2019-05-13T23:16:31.582Z,39.17
2019-05-13T23:19:00.366Z,38.03
2019-05-13T23:21:31.138Z,37.73
2019-05-13T23:24:02.039Z,43.87
2019-05-13T23:26:31.532Z,39.43
2019-05-13T23:29:01.379Z,43.03
2019-05-13T23:31:30.191Z,40.70
2019-05-13T23:33:58.768Z,40.40
2019-05-13T23:36:27.453Z,42.20
2019-05-13T23:38:56.034Z,45.40
2019-05-13T23:41:24.706Z,43.43
2019-05-13T23:43:53.294Z,45.97
2019-05-13T23:46:22.340Z,43.80
2019-05-13T23:48:52.049Z,46.17
2019-05-13T23:51:21.641Z,51.57
2019-05-13T23:53:50.989Z,46.63
2019-05-13T23:56:21.712Z,51.20
2019-05-13T23:58:51.901Z,55.70
